createdAt,value
2023-03-27T05:45:48.231Z,99903.69
2023-03-27T05:48:51.146Z,99895.84
2023-03-27T05:51:54.053Z,99906.00
2023-03-27T05:54:57.009Z,99910.19
2023-03-27T05:58:00.272Z,99906.69
2023-03-27T06:01:04.609Z,99913.03
2023-03-27T06:04:09.481Z,99931.34
2023-03-27T06:07:14.963Z,99936.69
2023-03-27T06:10:20.399Z,99935.63
2023-03-27T06:13:24.237Z,99942.44
2023-03-27T06:16:28.964Z,99939.81
2023-03-27T06:19:31.919Z,99946.34
2023-03-27T06:22:34.726Z,99949.53
2023-03-27T06:25:39.578Z,99955.41
2023-03-27T06:28:43.732Z,99958.19
2023-03-27T06:31:48.080Z,99970.31
2023-03-27T06:34:51.339Z,99965.22
2023-03-27T06:37:55.850Z,99973.63
2023-03-27T06:40:59.770Z,99970.63
2023-03-27T06:44:02.304Z,99971.03
2023-03-27T06:47:06.367Z,99982.03
2023-03-27T06:50:10.017Z,99980.47
2023-03-27T06:53:25.769Z,99991.72
2023-03-27T06:56:29.523Z,99990.69
2023-03-27T06:59:32.005Z,99995.06
2023-03-27T07:02:36.069Z,100003.28
2023-03-27T07:05:40.851Z,100010.53
2023-03-27T07:08:43.595Z,100007.91
2023-03-27T07:11:46.175Z,100015.19
2023-03-27T07:14:48.710Z,100022.06
2023-03-27T07:17:56.710Z,100029.03
2023-03-27T07:20:59.395Z,100017.31
2023-03-27T07:24:02.420Z,100023.13
2023-03-27T07:27:05.717Z,100026.03
2023-03-27T07:30:12.158Z,100018.84
2023-03-27T07:33:16.088Z,100032.19
2023-03-27T07:36:18.630Z,100036.81
2023-03-27T07:39:21.610Z,100041.59
2023-03-27T07:42:24.759Z,100043.47
2023-03-27T07:45:27.338Z,100037.47
2023-03-27T07:48:32.399Z,100040.56
2023-03-27T07:51:38.773Z,100040.34
2023-03-27T07:54:49.236Z,100054.19
2023-03-27T07:58:00.492Z,100054.56
2023-03-27T08:01:04.752Z,100048.84
2023-03-27T08:04:10.518Z,100055.47
2023-03-27T08:07:15.476Z,100054.69
2023-03-27T08:10:21.513Z,100057.69
2023-03-27T08:13:26.984Z,100066.81
2023-03-27T08:16:31.304Z,100067.38
2023-03-27T08:19:35.584Z,100066.53
2023-03-27T08:22:39.482Z,100068.31
2023-03-27T08:25:42.845Z,100055.13
2023-03-27T08:28:45.417Z,100064.34
2023-03-27T08:31:48.006Z,100070.19
2023-03-27T08:34:51.824Z,100089.53
2023-03-27T08:37:54.345Z,100080.63
2023-03-27T08:40:59.826Z,100095.50
2023-03-27T08:44:06.292Z,100090.00
2023-03-27T08:47:15.609Z,100100.75
2023-03-27T08:50:31.229Z,100099.44
2023-03-27T08:53:40.391Z,100096.50
2023-03-27T08:56:43.004Z,100099.69
2023-03-27T08:59:45.828Z,100111.47
2023-03-27T09:02:53.962Z,100087.03
2023-03-27T09:06:02.531Z,100102.34
2023-03-27T09:09:10.733Z,100123.84
2023-03-27T09:12:33.285Z,100119.88
2023-03-27T09:15:41.954Z,100114.03
2023-03-27T09:18:54.011Z,100125.00
2023-03-27T09:22:05.685Z,100116.03
2023-03-27T09:25:20.326Z,100125.81
2023-03-27T09:28:26.343Z,100127.34
2023-03-27T09:31:32.202Z,100138.47
2023-03-27T09:34:34.792Z,100144.25
2023-03-27T09:37:39.945Z,100143.69
2023-03-27T09:40:47.498Z,100146.47
2023-03-27T09:43:56.741Z,100139.44
2023-03-27T09:47:05.738Z,100146.66
2023-03-27T09:50:25.577Z,100140.53
2023-03-27T09:53:31.010Z,100149.00
2023-03-27T09:56:37.246Z,100160.56
2023-03-27T09:59:52.153Z,100147.00
2023-03-27T10:03:01.481Z,100159.50
2023-03-27T10:06:08.375Z,100156.13
2023-03-27T10:09:23.486Z,100161.16
2023-03-27T10:12:27.188Z,100160.91
2023-03-27T10:15:34.163Z,100177.03
2023-03-27T10:18:44.098Z,100154.47
2023-03-27T10:21:46.728Z,100161.59
2023-03-27T10:24:54.101Z,100158.38
2023-03-27T10:28:09.242Z,100171.41
2023-03-27T10:31:29.700Z,100172.84
2023-03-27T10:34:36.630Z,100173.31
2023-03-27T10:37:50.039Z,100186.03
2023-03-27T10:40:56.898Z,100176.69
2023-03-27T10:43:59.694Z,100187.31
2023-03-27T10:47:02.658Z,100201.63
2023-03-27T10:50:14.609Z,100195.31
2023-03-27T10:53:19.110Z,100202.44
2023-03-27T10:56:27.716Z,100205.66
2023-03-27T10:59:41.626Z,100204.25
2023-03-27T11:02:50.329Z,100204.13
2023-03-27T11:05:54.304Z,100197.97
2023-03-27T11:09:05.590Z,100196.38
2023-03-27T11:12:12.599Z,100197.78
2023-03-27T11:15:22.206Z,100201.66
2023-03-27T11:18:29.530Z,100187.50
2023-03-27T11:21:37.970Z,100207.28
2023-03-27T11:24:47.750Z,100216.25
2023-03-27T11:28:01.578Z,100211.81
2023-03-27T11:31:11.695Z,100228.59
2023-03-27T11:34:29.233Z,100215.06
2023-03-27T11:37:41.657Z,100227.06
2023-03-27T11:40:47.747Z,100208.28
2023-03-27T11:43:51.582Z,100204.06
2023-03-27T11:47:15.126Z,100202.38
2023-03-27T11:50:24.915Z,100206.97
2023-03-27T11:54:01.095Z,100219.09
2023-03-27T11:57:07.218Z,100222.75
2023-03-27T12:00:19.108Z,100223.94
2023-03-27T12:03:46.887Z,100225.00
2023-03-27T12:06:56.982Z,100232.44
2023-03-27T12:10:18.726Z,100223.00
2023-03-27T12:13:41.352Z,100217.22
2023-03-27T12:16:58.206Z,100229.88
2023-03-27T12:20:48.652Z,100217.25
2023-03-27T12:24:16.122Z,100224.53
2023-03-27T12:27:42.159Z,100235.00
2023-03-27T12:30:56.419Z,100224.09
2023-03-27T12:34:04.493Z,100224.47
2023-03-27T12:37:13.170Z,100228.44
2023-03-27T12:40:29.068Z,100232.63
2023-03-27T12:43:33.785Z,100239.16
2023-03-27T12:46:39.685Z,100222.16
2023-03-27T12:49:48.340Z,100229.13
2023-03-27T12:52:53.242Z,100229.81
2023-03-27T12:56:26.833Z,100215.72
2023-03-27T12:59:30.194Z,100217.81
2023-03-27T13:03:14.579Z,100227.25
2023-03-27T13:06:31.183Z,100230.44
2023-03-27T13:09:48.079Z,100229.22
2023-03-27T13:13:05.650Z,100234.31
2023-03-27T13:16:40.389Z,100244.53
2023-03-27T13:19:54.155Z,100238.78
2023-03-27T13:23:11.383Z,100247.41
2023-03-27T13:26:31.533Z,100247.63
2023-03-27T13:29:35.998Z,100243.53
2023-03-27T13:32:39.958Z,100253.22
2023-03-27T13:35:53.652Z,100241.28
2023-03-27T13:39:24.868Z,100239.00
2023-03-27T13:42:34.072Z,100244.84
2023-03-27T13:45:46.839Z,100248.69
2023-03-27T13:49:07.877Z,100238.19
2023-03-27T13:52:36.386Z,100241.81
2023-03-27T13:56:26.591Z,100224.56
2023-03-27T13:59:51.017Z,100220.47
2023-03-27T14:03:14.966Z,100233.44
2023-03-27T14:07:00.153Z,100231.22
2023-03-27T14:10:19.690Z,100240.53
2023-03-27T14:13:35.535Z,100243.53
2023-03-27T14:16:50.345Z,100249.50
2023-03-27T14:20:14.186Z,100246.72
2023-03-27T14:23:23.438Z,100235.00
2023-03-27T14:26:30.293Z,100233.78
2023-03-27T14:29:34.791Z,100245.31
2023-03-27T14:32:37.468Z,100258.31
2023-03-27T14:35:44.054Z,100253.16
2023-03-27T14:38:47.287Z,100242.22
2023-03-27T14:41:54.365Z,100255.78
2023-03-27T14:45:11.220Z,100259.09
2023-03-27T14:48:22.530Z,100256.88
2023-03-27T14:51:34.784Z,100254.16
2023-03-27T14:54:52.264Z,100264.34
2023-03-27T14:58:00.664Z,100249.28
2023-03-27T15:01:06.229Z,100255.13
2023-03-27T15:04:11.207Z,100237.53
2023-03-27T15:07:19.637Z,100252.34
2023-03-27T15:10:26.101Z,100262.28
2023-03-27T15:13:35.341Z,100254.88
2023-03-27T15:16:39.879Z,100261.38
2023-03-27T15:19:48.486Z,100257.03
2023-03-27T15:22:55.901Z,100260.09
2023-03-27T15:26:02.742Z,100256.44
2023-03-27T15:29:13.732Z,100258.47
2023-03-27T15:32:22.092Z,100266.34
2023-03-27T15:35:31.677Z,100259.09
2023-03-27T15:38:36.982Z,100264.47
2023-03-27T15:41:43.952Z,100250.72
2023-03-27T15:44:46.564Z,100256.34
2023-03-27T15:48:01.885Z,100256.81
2023-03-27T15:51:06.357Z,100256.56
2023-03-27T15:54:25.348Z,100259.47
2023-03-27T15:57:30.501Z,100263.78
2023-03-27T16:00:33.014Z,100264.16
2023-03-27T16:03:38.435Z,100265.53
2023-03-27T16:06:44.980Z,100264.91
2023-03-27T16:09:53.028Z,100260.38
2023-03-27T16:12:58.235Z,100265.47
2023-03-27T16:16:02.302Z,100262.22
2023-03-27T16:19:13.494Z,100258.31
2023-03-27T16:22:21.344Z,100263.88
2023-03-27T16:25:23.869Z,100261.84
2023-03-27T16:28:29.681Z,100270.72
2023-03-27T16:31:32.240Z,100278.09
2023-03-27T16:34:36.246Z,100274.97
2023-03-27T16:37:38.718Z,100280.66
2023-03-27T16:40:41.243Z,100271.47
2023-03-27T16:43:44.712Z,100276.34
2023-03-27T16:46:47.513Z,100279.28
2023-03-27T16:50:09.866Z,100282.28
2023-03-27T16:53:13.389Z,100290.47
2023-03-27T16:56:16.014Z,100289.09
2023-03-27T16:59:18.669Z,100307.56
2023-03-27T17:02:21.130Z,100312.06
2023-03-27T17:05:25.739Z,100316.44
2023-03-27T17:08:30.285Z,100320.22
2023-03-27T17:11:32.777Z,100329.69
2023-03-27T17:14:35.352Z,100329.09
2023-03-27T17:17:38.010Z,100336.03
2023-03-27T17:20:41.866Z,100341.31
2023-03-27T17:23:48.202Z,100343.03
2023-03-27T17:26:50.671Z,100345.69
2023-03-27T17:29:53.153Z,100350.84
2023-03-27T17:32:55.720Z,100374.00
2023-03-27T17:35:59.710Z,100409.03
2023-03-27T17:39:04.423Z,100384.88
2023-03-27T17:42:07.277Z,100403.44
2023-03-27T17:45:10.787Z,100410.84
2023-03-27T17:48:13.461Z,100413.88
2023-03-27T17:51:17.326Z,100402.84
2023-03-27T17:54:19.831Z,100403.88
2023-03-27T17:57:22.882Z,100388.53
2023-03-27T18:00:26.075Z,100392.06
2023-03-27T18:03:28.929Z,100389.41
2023-03-27T18:06:32.836Z,100374.69
2023-03-27T18:09:35.830Z,100366.91
2023-03-27T18:12:38.313Z,100370.34
2023-03-27T18:15:41.032Z,100363.56
2023-03-27T18:18:43.539Z,100359.25
2023-03-27T18:21:47.388Z,100354.97
2023-03-27T18:24:49.958Z,100366.16
2023-03-27T18:27:52.456Z,100364.25
2023-03-27T18:30:59.929Z,100366.91
2023-03-27T18:34:02.494Z,100366.00
2023-03-27T18:37:06.371Z,100365.91
2023-03-27T18:40:11.991Z,100386.06
2023-03-27T18:43:14.511Z,100369.78
2023-03-27T18:46:17.663Z,100352.47
2023-03-27T18:49:24.858Z,100341.25
2023-03-27T18:52:29.522Z,100339.63
2023-03-27T18:55:32.413Z,100336.22
2023-03-27T18:58:35.725Z,100335.22
2023-03-27T19:01:38.592Z,100317.78
2023-03-27T19:04:41.248Z,100290.81
2023-03-27T19:07:45.791Z,100293.47
2023-03-27T19:10:48.314Z,100285.63
2023-03-27T19:13:50.854Z,100281.44
2023-03-27T19:16:54.939Z,100280.56
2023-03-27T19:19:57.521Z,100278.06
2023-03-27T19:23:01.376Z,100278.03
2023-03-27T19:26:08.652Z,100275.44
2023-03-27T19:29:11.779Z,100261.59
2023-03-27T19:32:14.267Z,100264.97
2023-03-27T19:35:16.877Z,100263.22
2023-03-27T19:38:20.694Z,100254.56
2023-03-27T19:41:23.264Z,100264.03
2023-03-27T19:44:25.808Z,100272.72
2023-03-27T19:47:28.401Z,100268.28
2023-03-27T19:50:31.226Z,100267.38
2023-03-27T19:53:35.039Z,100274.28
2023-03-27T19:56:37.622Z,100274.16
2023-03-27T19:59:40.240Z,100258.47
2023-03-27T20:02:43.869Z,100260.09
2023-03-27T20:05:48.317Z,100269.53
2023-03-27T20:08:52.134Z,100281.59
2023-03-27T20:11:54.905Z,100288.47
